Time;durP1;ratioP1;P1;durP2;ratioP2;P2;SDS_P1;SDS_P2;PMS_P1;PMS_P2;Temp;Humidity;BMP_temperature;BMP_pressure;BME280_temperature;BME280_humidity;BME280_pressure;Samples;Min_cycle;Max_cycle;Signal;HPM_P1;HPM_P2
2022/04/27 00:00:17;;;;;;;11.85;7.68;;;9.30;99.90;;;;;;5032524;28;20474;-90
2022/04/27 00:02:43;;;;;;;12.30;7.53;;;9.30;99.90;;;;;;5014810;28;20025;-87
2022/04/27 00:05:10;;;;;;;14.80;7.55;;;9.30;99.90;;;;;;5031656;28;20034;-84
2022/04/27 00:07:35;;;;;;;13.55;7.72;;;9.20;99.90;;;;;;5014232;28;20026;-88
2022/04/27 00:10:02;;;;;;;20.75;8.10;;;9.10;99.90;;;;;;5031705;28;20032;-92
2022/04/27 00:12:27;;;;;;;12.13;7.63;;;9.30;99.90;;;;;;5031379;28;20032;-91
2022/04/27 00:14:53;;;;;;;12.85;7.72;;;9.10;99.90;;;;;;5014096;28;20030;-89
2022/04/27 00:17:19;;;;;;;12.88;7.25;;;9.10;99.90;;;;;;5013680;28;20033;-84
2022/04/27 00:19:44;;;;;;;12.63;7.88;;;9.10;99.90;;;;;;5032434;28;20048;-88
2022/04/27 00:22:14;;;;;;;14.52;7.43;;;9.10;99.90;;;;;;5031232;28;20021;-91
2022/04/27 00:24:39;;;;;;;13.88;8.10;;;9.10;99.90;;;;;;5013840;28;20128;-91
2022/04/27 00:27:05;;;;;;;13.48;7.75;;;9.10;99.90;;;;;;5013816;28;20057;-90
2022/04/27 00:29:32;;;;;;;16.88;7.65;;;9.10;99.90;;;;;;5031561;28;20036;-89
2022/04/27 00:31:57;;;;;;;13.52;8.40;;;9.00;99.90;;;;;;5031318;28;20032;-88
2022/04/27 00:34:23;;;;;;;14.45;8.00;;;8.90;99.90;;;;;;5031061;28;20026;-92
2022/04/27 00:36:49;;;;;;;13.15;7.25;;;9.00;99.90;;;;;;5013718;28;20444;-83
2022/04/27 00:39:16;;;;;;;12.05;6.78;;;9.00;99.90;;;;;;5031911;28;20021;-91
2022/04/27 00:41:58;;;;;;;13.65;7.60;;;8.90;99.90;;;;;;5031099;28;20061;-90
2022/04/27 00:44:31;;;;;;;11.63;6.72;;;8.90;99.90;;;;;;5013050;28;20367;-90
2022/04/27 00:46:57;;;;;;;10.75;6.95;;;8.90;99.90;;;;;;5031200;28;20026;-89
2022/04/27 00:49:23;;;;;;;13.07;6.85;;;9.00;99.90;;;;;;5033758;28;20029;-91
2022/04/27 00:51:49;;;;;;;14.52;6.82;;;8.90;99.90;;;;;;5038775;28;20060;-84
2022/04/27 00:54:18;;;;;;;13.63;7.25;;;8.90;99.90;;;;;;5017895;28;20041;-90
2022/04/27 00:56:44;;;;;;;10.85;6.25;;;9.00;99.90;;;;;;5031511;28;20029;-89
2022/04/27 00:59:10;;;;;;;13.80;7.22;;;8.90;99.90;;;;;;5030511;28;20025;-88
2022/04/27 01:01:35;;;;;;;10.75;6.38;;;9.00;99.90;;;;;;5030730;28;20101;-89
2022/04/27 01:04:05;;;;;;;10.18;6.35;;;8.90;99.90;;;;;;5030711;28;20022;-89
2022/04/27 01:06:31;;;;;;;12.85;6.07;;;9.00;99.90;;;;;;5030463;28;20030;-92
2022/04/27 01:08:57;;;;;;;14.55;6.43;;;8.90;99.90;;;;;;5013056;28;20021;-88
2022/04/27 01:11:23;;;;;;;12.63;6.57;;;8.80;99.90;;;;;;5030250;28;20470;-90
2022/04/27 01:13:49;;;;;;;12.77;6.70;;;8.90;99.90;;;;;;5031290;28;20057;-91
2022/04/27 01:16:15;;;;;;;10.63;6.50;;;8.90;99.90;;;;;;5031041;28;20498;-90
2022/04/27 01:18:40;;;;;;;14.10;6.47;;;8.90;99.90;;;;;;5030234;28;20029;-89
2022/04/27 01:21:06;;;;;;;9.05;6.38;;;9.00;99.90;;;;;;5030324;28;20037;-91
2022/04/27 01:23:31;;;;;;;12.00;6.28;;;9.00;99.90;;;;;;5012453;28;20022;-90
2022/04/27 01:26:05;;;;;;;10.70;7.25;;;8.90;99.90;;;;;;5030341;28;20041;-92
2022/04/27 01:28:31;;;;;;;9.68;6.25;;;8.90;99.90;;;;;;5012151;28;20482;-91
2022/04/27 01:31:00;;;;;;;9.95;6.38;;;8.80;99.90;;;;;;5029841;28;20492;-92
2022/04/27 01:33:26;;;;;;;12.82;6.47;;;8.80;99.90;;;;;;5029734;28;20021;-89
2022/04/27 01:35:52;;;;;;;12.25;6.18;;;8.80;99.90;;;;;;5029952;28;20029;-91
2022/04/27 01:38:19;;;;;;;11.88;6.68;;;8.70;99.90;;;;;;5030583;28;20036;-91
2022/04/27 01:40:45;;;;;;;13.45;7.00;;;8.80;99.90;;;;;;5029762;28;20037;-88
2022/04/27 01:43:14;;;;;;;7.75;5.90;;;8.70;99.90;;;;;;5011997;28;20505;-91
2022/04/27 01:45:42;;;;;;;9.07;6.35;;;8.80;99.90;;;;;;5029748;28;20040;-91
2022/04/27 01:48:08;;;;;;;17.63;6.68;;;8.70;99.90;;;;;;5029606;28;20046;-89
2022/04/27 01:50:34;;;;;;;9.48;6.68;;;8.70;99.90;;;;;;5029629;28;20040;-89
2022/04/27 01:55:43;;;;;;;12.10;6.18;;;8.70;99.90;;;;;;5029921;28;20111;-90
2022/04/27 01:58:09;;;;;;;11.68;6.68;;;8.60;99.90;;;;;;5029303;28;20053;-84
2022/04/27 02:00:35;;;;;;;9.95;6.13;;;8.60;99.90;;;;;;5029573;28;20104;-90
2022/04/27 02:03:01;;;;;;;9.50;6.53;;;8.60;99.90;;;;;;5029430;28;20013;-91
2022/04/27 02:05:27;;;;;;;7.80;5.95;;;8.60;99.90;;;;;;5028920;28;20115;-89
2022/04/27 02:07:52;;;;;;;10.05;6.60;;;8.70;99.90;;;;;;5029262;28;20053;-89
2022/04/27 02:10:18;;;;;;;9.60;6.45;;;8.70;99.90;;;;;;5029888;28;20037;-92
2022/04/27 02:12:44;;;;;;;13.98;6.63;;;8.60;99.90;;;;;;5029245;28;20028;-92
2022/04/27 02:15:09;;;;;;;11.20;5.72;;;8.60;99.90;;;;;;5029065;28;20029;-88
2022/04/27 02:17:35;;;;;;;10.23;6.88;;;8.60;99.90;;;;;;5029548;28;20044;-88
2022/04/27 02:20:01;;;;;;;9.52;6.88;;;8.50;99.90;;;;;;5011627;28;20037;-90
2022/04/27 02:22:27;;;;;;;11.18;6.47;;;8.50;99.90;;;;;;5011527;28;20042;-90
2022/04/27 02:24:53;;;;;;;10.10;6.40;;;8.50;99.90;;;;;;5029043;28;20049;-90
2022/04/27 02:27:20;;;;;;;8.13;6.20;;;8.50;99.90;;;;;;5029812;28;20504;-90
2022/04/27 02:29:46;;;;;;;9.98;6.28;;;8.50;99.90;;;;;;5029170;28;20056;-89
2022/04/27 02:32:12;;;;;;;10.55;5.95;;;8.40;99.90;;;;;;5028965;28;20022;-90
2022/04/27 02:34:38;;;;;;;10.02;6.68;;;8.30;99.90;;;;;;5029000;28;20037;-91
2022/04/27 02:37:06;;;;;;;11.68;6.15;;;8.30;99.90;;;;;;5011268;28;20493;-86
2022/04/27 02:39:31;;;;;;;11.15;6.30;;;8.30;99.90;;;;;;5028852;28;20529;-87
2022/04/27 02:41:57;;;;;;;10.23;6.68;;;8.20;99.90;;;;;;5011113;28;20117;-89
2022/04/27 02:44:23;;;;;;;10.07;6.50;;;8.20;99.90;;;;;;5028571;28;20045;-88
2022/04/27 02:46:48;;;;;;;8.60;6.32;;;8.10;99.90;;;;;;5030005;28;20033;-91
2022/04/27 02:51:58;;;;;;;8.50;6.13;;;8.10;99.90;;;;;;5028930;28;20447;-88
2022/04/27 02:54:24;;;;;;;10.38;6.60;;;8.00;99.90;;;;;;5028426;28;20021;-89
2022/04/27 02:56:50;;;;;;;9.70;6.63;;;8.00;99.90;;;;;;5029731;28;20501;-90
2022/04/27 02:59:16;;;;;;;10.20;6.38;;;8.00;99.90;;;;;;5028410;28;20470;-91
2022/04/27 03:01:42;;;;;;;9.30;6.70;;;8.00;99.90;;;;;;5028793;28;20597;-90
2022/04/27 03:04:09;;;;;;;11.52;6.78;;;7.90;99.90;;;;;;5028505;28;20026;-88
2022/04/27 03:06:36;;;;;;;10.45;6.45;;;7.90;99.90;;;;;;5028623;28;20034;-89
2022/04/27 03:09:02;;;;;;;7.80;6.20;;;7.90;99.90;;;;;;5028682;28;20385;-89
2022/04/27 03:11:27;;;;;;;11.07;6.65;;;7.90;99.90;;;;;;5028300;28;20108;-90
2022/04/27 03:13:53;;;;;;;11.82;6.43;;;7.80;99.90;;;;;;5011250;28;20120;-84
2022/04/27 03:16:19;;;;;;;10.13;6.68;;;7.70;99.90;;;;;;5029446;28;20563;-90
2022/04/27 03:18:45;;;;;;;11.38;6.53;;;7.70;99.90;;;;;;5032554;28;20025;-91
2022/04/27 03:21:12;;;;;;;12.43;6.60;;;7.70;99.90;;;;;;5032329;28;20025;-91
2022/04/27 03:23:38;;;;;;;9.68;6.40;;;7.70;99.90;;;;;;5032533;28;20500;-90
2022/04/27 03:26:04;;;;;;;11.13;6.78;;;7.60;99.90;;;;;;5035680;28;20488;-89
2022/04/27 03:28:30;;;;;;;12.13;6.15;;;7.50;99.90;;;;;;5032286;28;20021;-91
2022/04/27 03:30:55;;;;;;;12.05;6.70;;;7.50;99.90;;;;;;5032869;28;20029;-91
2022/04/27 03:33:22;;;;;;;13.90;6.40;;;7.40;99.90;;;;;;5015377;28;20091;-89
2022/04/27 03:35:47;;;;;;;8.93;6.15;;;7.50;99.90;;;;;;5032525;28;20049;-90
2022/04/27 03:38:18;;;;;;;9.43;6.55;;;7.40;99.90;;;;;;5031859;28;20030;-91
2022/04/27 03:40:47;;;;;;;9.93;6.32;;;7.40;99.90;;;;;;5032137;28;20566;-90
2022/04/27 03:43:14;;;;;;;8.85;6.13;;;7.40;99.90;;;;;;5032736;28;20127;-91
2022/04/27 03:45:41;;;;;;;10.63;6.55;;;7.30;99.90;;;;;;5041315;28;20033;-90
2022/04/27 03:48:07;;;;;;;12.90;6.43;;;7.20;99.90;;;;;;5022623;28;20022;-88
2022/04/27 03:50:33;;;;;;;7.78;6.30;;;7.20;99.90;;;;;;5033938;28;20075;-91
2022/04/27 03:53:00;;;;;;;15.25;6.88;;;7.40;99.90;;;;;;5014396;28;20029;-91
2022/04/27 03:55:27;;;;;;;8.43;6.07;;;7.20;99.90;;;;;;5031724;28;20029;-86
2022/04/27 03:57:52;;;;;;;9.00;5.97;;;7.20;99.90;;;;;;5032523;28;20017;-88
2022/04/27 04:00:18;;;;;;;12.60;6.65;;;7.10;99.90;;;;;;5031560;28;20029;-91
2022/04/27 04:02:44;;;;;;;10.20;6.50;;;7.00;99.90;;;;;;5014128;28;20026;-91
2022/04/27 04:05:10;;;;;;;15.38;7.15;;;7.00;99.90;;;;;;5031583;28;20033;-89
2022/04/27 04:07:35;;;;;;;12.23;6.55;;;7.60;99.90;;;;;;5031401;28;20075;-89
2022/04/27 04:10:02;;;;;;;8.63;6.22;;;7.00;99.90;;;;;;5014012;28;20378;-89
2022/04/27 04:12:28;;;;;;;9.35;6.72;;;7.00;99.90;;;;;;5031094;28;20422;-90
2022/04/27 04:14:54;;;;;;;10.40;6.50;;;;;;;;;;5032442;28;20022;-90
2022/04/27 04:17:20;;;;;;;10.50;6.43;;;;;;;;;;5030063;28;20394;-89
2022/04/27 04:19:46;;;;;;;10.55;5.78;;;;;;;;;;5031361;28;20402;-92
2022/04/27 04:22:13;;;;;;;8.65;6.10;;;;;;;;;;5030985;28;20052;-91
2022/04/27 04:28:29;;;;;;;9.35;5.85;;;;;;;;;;5030255;28;20169;-91
2022/04/27 04:30:11;;;;;;;10.55;6.78;;;;;;;;;;5031017;28;20623;-91
2022/04/27 04:32:37;;;;;;;8.88;6.57;;;6.90;99.90;;;;;;5031040;28;20025;-91
2022/04/27 04:35:03;;;;;;;8.50;6.70;;;6.90;99.90;;;;;;5013498;28;20036;-89
2022/04/27 04:37:31;;;;;;;10.32;6.50;;;6.90;99.90;;;;;;5030912;28;20037;-90
2022/04/27 04:39:57;;;;;;;10.90;6.57;;;6.80;99.90;;;;;;5031643;28;20112;-83
2022/04/27 04:42:23;;;;;;;11.68;6.80;;;6.90;99.90;;;;;;5032547;28;20056;-91
2022/04/27 04:44:48;;;;;;;10.63;6.40;;;6.80;99.90;;;;;;5035655;28;20033;-93
2022/04/27 04:47:14;;;;;;;9.13;6.43;;;6.70;99.90;;;;;;5030662;28;20033;-90
2022/04/27 04:49:40;;;;;;;10.52;6.40;;;6.70;99.90;;;;;;5033081;28;20013;-86
2022/04/27 04:52:09;;;;;;;9.65;6.50;;;6.70;99.90;;;;;;5049318;28;20049;-87
2022/04/27 04:54:35;;;;;;;10.07;6.03;;;6.60;99.90;;;;;;5046483;28;20021;-91
2022/04/27 04:57:01;;;;;;;9.00;6.30;;;6.70;99.90;;;;;;5041774;28;20028;-92
2022/04/27 04:59:27;;;;;;;14.15;6.30;;;6.70;99.90;;;;;;5018062;28;20054;-88
2022/04/27 05:01:53;;;;;;;10.07;6.38;;;6.60;99.90;;;;;;5033021;28;20071;-88
2022/04/27 05:04:19;;;;;;;9.70;6.18;;;6.60;99.90;;;;;;5033598;28;20041;-89
2022/04/27 05:06:46;;;;;;;10.77;6.70;;;6.70;99.90;;;;;;5034832;28;20014;-90
2022/04/27 05:09:12;;;;;;;11.93;6.63;;;6.60;99.90;;;;;;5034352;28;20496;-89
2022/04/27 05:11:38;;;;;;;9.45;6.75;;;6.60;99.90;;;;;;5031029;28;20021;-89
2022/04/27 05:14:04;;;;;;;20.73;8.50;;;6.60;99.90;;;;;;5030798;28;20029;-91
2022/04/27 05:16:32;;;;;;;11.20;6.20;;;6.60;99.90;;;;;;5031680;28;20028;-90
2022/04/27 05:18:59;;;;;;;10.05;6.70;;;6.70;99.90;;;;;;5031116;28;20401;-83
2022/04/27 05:21:25;;;;;;;12.95;6.32;;;6.60;99.90;;;;;;5031004;28;20112;-92
2022/04/27 05:23:51;;;;;;;7.70;6.03;;;6.60;99.90;;;;;;5029995;28;20542;-88
2022/04/27 05:26:17;;;;;;;8.48;6.45;;;6.60;99.90;;;;;;5030495;28;20030;-88
2022/04/27 05:34:11;;;;;;;9.38;6.35;;;6.60;99.90;;;;;;5031357;28;20033;-91
2022/04/27 05:36:37;;;;;;;13.38;7.20;;;6.60;99.90;;;;;;5030726;28;20025;-90
2022/04/27 05:39:03;;;;;;;8.90;6.57;;;6.60;99.90;;;;;;5030245;28;20066;-90
2022/04/27 05:41:29;;;;;;;8.40;6.45;;;6.60;99.90;;;;;;5013276;28;20124;-90
2022/04/27 05:43:54;;;;;;;11.60;6.93;;;6.60;99.90;;;;;;5031041;28;20029;-93
2022/04/27 05:46:20;;;;;;;11.95;6.68;;;6.70;99.90;;;;;;5030316;28;20037;-89
2022/04/27 05:48:46;;;;;;;10.73;6.70;;;6.70;99.90;;;;;;5029845;28;20440;-88
2022/04/27 05:51:11;;;;;;;12.98;6.47;;;6.70;99.90;;;;;;5030006;28;20422;-88
2022/04/27 05:53:39;;;;;;;9.52;6.78;;;6.80;99.90;;;;;;5011774;28;20029;-90
2022/04/27 05:56:05;;;;;;;9.07;6.78;;;6.70;99.90;;;;;;5029913;28;20025;-88
2022/04/27 05:58:31;;;;;;;16.52;7.85;;;6.80;99.90;;;;;;5030372;28;20034;-83
2022/04/27 06:00:57;;;;;;;8.48;7.20;;;6.90;99.90;;;;;;5030836;28;20444;-90
2022/04/27 06:03:22;;;;;;;9.50;7.22;;;6.90;99.90;;;;;;5029964;28;20021;-88
2022/04/27 06:05:48;;;;;;;9.70;6.47;;;6.90;99.90;;;;;;5029897;28;20049;-88
2022/04/27 06:08:14;;;;;;;9.73;6.78;;;;;;;;;;5030144;28;20021;-92
2022/04/27 06:10:40;;;;;;;10.18;6.85;;;7.00;99.90;;;;;;5031476;28;20033;-90
2022/04/27 06:13:06;;;;;;;10.35;6.60;;;7.10;99.90;;;;;;5031592;28;20022;-91
2022/04/27 06:15:32;;;;;;;9.40;6.90;;;7.10;99.90;;;;;;5031591;28;20104;-84
2022/04/27 06:17:57;;;;;;;11.65;6.80;;;7.20;99.90;;;;;;5020176;28;20046;-89
2022/04/27 06:20:23;;;;;;;9.32;6.57;;;7.20;99.90;;;;;;5021727;28;20053;-88
2022/04/27 06:22:49;;;;;;;11.50;6.95;;;7.30;99.90;;;;;;5026784;28;20064;-89
2022/04/27 06:25:15;;;;;;;9.55;7.07;;;7.30;99.90;;;;;;5028364;28;20079;-92
2022/04/27 06:27:41;;;;;;;9.63;6.97;;;7.40;99.90;;;;;;5028538;28;20076;-91
2022/04/27 06:30:07;;;;;;;10.18;7.70;;;7.40;99.90;;;;;;5028847;28;20096;-89
2022/04/27 06:32:33;;;;;;;12.95;7.85;;;7.50;99.90;;;;;;5028369;28;20034;-89
2022/04/27 06:35:00;;;;;;;9.20;7.57;;;7.50;99.90;;;;;;5029397;28;20033;-91
2022/04/27 06:37:26;;;;;;;15.00;7.15;;;7.60;99.90;;;;;;5027493;28;20489;-88
2022/04/27 06:39:52;;;;;;;13.48;7.18;;;7.60;99.90;;;;;;5023662;28;20108;-89
2022/04/27 06:42:22;;;;;;;13.38;7.45;;;7.70;99.90;;;;;;5029056;28;20110;-89
2022/04/27 06:44:48;;;;;;;17.30;7.47;;;7.80;99.90;;;;;;5028891;28;20095;-89
2022/04/27 06:47:14;;;;;;;12.95;8.15;;;7.80;99.90;;;;;;5027283;28;20101;-88
2022/04/27 06:49:41;;;;;;;9.40;7.50;;;8.00;99.90;;;;;;5028511;28;20025;-91
2022/04/27 06:52:07;;;;;;;11.50;8.07;;;8.10;99.90;;;;;;5029784;28;20057;-87
2022/04/27 06:54:32;;;;;;;12.63;8.18;;;8.20;99.90;;;;;;5031858;28;20021;-86
2022/04/27 06:56:59;;;;;;;12.48;8.52;;;8.30;99.90;;;;;;5033496;28;20026;-86
2022/04/27 06:59:24;;;;;;;12.05;8.52;;;8.30;99.90;;;;;;5032500;28;20024;-88
2022/04/27 07:01:53;;;;;;;11.18;8.07;;;8.40;99.90;;;;;;5032031;28;20030;-88
2022/04/27 07:04:19;;;;;;;16.67;8.23;;;8.50;99.90;;;;;;5032387;28;20025;-86
2022/04/27 07:06:45;;;;;;;12.45;8.38;;;8.60;99.90;;;;;;5032588;28;20033;-87
2022/04/27 07:09:11;;;;;;;12.65;8.82;;;8.60;99.90;;;;;;5014673;28;20017;-87
2022/04/27 07:11:40;;;;;;;13.05;8.38;;;8.80;99.90;;;;;;5038890;28;20043;-86
2022/04/27 07:14:05;;;;;;;;;;;8.90;99.90;;;;;;5044566;28;20021;-86
2022/04/27 07:16:31;;;;;;;15.23;8.65;;;9.00;99.90;;;;;;5014605;28;19905;-86
2022/04/27 07:18:57;;;;;;;13.90;9.00;;;9.10;99.90;;;;;;5031914;28;20075;-87
2022/04/27 07:21:23;;;;;;;14.48;8.65;;;9.20;99.90;;;;;;5031305;28;20247;-86
2022/04/27 07:23:49;;;;;;;17.35;9.45;;;9.30;99.90;;;;;;5014117;28;20481;-87
2022/04/27 07:26:15;;;;;;;12.73;9.18;;;9.50;99.90;;;;;;5031310;28;20099;-88
2022/04/27 07:28:41;;;;;;;11.75;8.65;;;9.50;99.90;;;;;;5031484;28;20497;-87
2022/04/27 07:31:07;;;;;;;12.45;9.13;;;9.70;99.90;;;;;;5013642;28;20029;-86
2022/04/27 07:33:34;;;;;;;15.98;9.70;;;9.70;99.90;;;;;;5032719;28;20075;-85
2022/04/27 07:36:00;;;;;;;12.52;8.95;;;9.90;99.90;;;;;;5030241;28;20070;-87
2022/04/27 07:38:28;;;;;;;15.57;9.32;;;10.00;99.90;;;;;;5031602;28;20017;-87
2022/04/27 07:40:54;;;;;;;;;;;10.10;99.90;;;;;;5031704;28;20041;-86
2022/04/27 07:43:20;;;;;;;15.25;9.23;;;10.20;99.90;;;;;;5031605;28;19905;-87
2022/04/27 07:45:45;;;;;;;13.77;9.00;;;10.20;99.90;;;;;;5013764;28;20116;-88
2022/04/27 07:48:12;;;;;;;14.90;10.13;;;10.30;99.90;;;;;;5014007;28;20025;-87
2022/04/27 07:50:38;;;;;;;14.55;9.65;;;10.30;99.90;;;;;;5031337;28;20032;-86
2022/04/27 07:53:04;;;;;;;14.50;9.93;;;10.50;99.90;;;;;;5032056;28;20140;-87
2022/04/27 07:55:30;;;;;;;14.18;9.85;;;10.60;99.90;;;;;;5013911;28;20409;-85
2022/04/27 07:57:56;;;;;;;13.00;9.77;;;10.70;99.90;;;;;;5031390;28;20033;-86
2022/04/27 08:00:22;;;;;;;13.95;10.15;;;10.80;99.90;;;;;;5031410;28;20025;-86
2022/04/27 08:02:48;;;;;;;13.95;9.98;;;11.00;99.90;;;;;;5029416;28;20017;-86
2022/04/27 08:05:17;;;;;;;16.70;10.70;;;11.10;99.90;;;;;;5031093;28;20076;-86
2022/04/27 08:07:45;;;;;;;15.35;10.27;;;11.20;99.90;;;;;;5031421;28;20057;-87
2022/04/27 08:10:13;;;;;;;16.95;10.43;;;11.50;99.90;;;;;;5013367;28;20022;-85
2022/04/27 08:12:40;;;;;;;15.55;9.98;;;11.60;99.90;;;;;;5013282;28;20076;-86
2022/04/27 08:15:07;;;;;;;15.25;10.23;;;11.80;99.90;;;;;;5014053;28;20470;-85
2022/04/27 08:17:33;;;;;;;14.73;10.57;;;11.90;99.90;;;;;;5031757;28;20032;-85
2022/04/27 08:22:44;;;;;;;14.48;10.38;;;12.40;99.90;;;;;;5030783;28;20071;-88
2022/04/27 08:25:10;;;;;;;17.08;10.48;;;12.40;99.90;;;;;;5013005;28;20057;-88
2022/04/27 08:27:36;;;;;;;17.92;11.15;;;12.60;99.90;;;;;;5031113;28;20025;-87
2022/04/27 08:30:02;;;;;;;18.40;10.70;;;12.30;99.90;;;;;;5013862;28;20439;-86
2022/04/27 08:32:28;;;;;;;16.25;11.23;;;12.50;99.90;;;;;;5030869;28;20095;-88
2022/04/27 08:34:54;;;;;;;16.27;11.07;;;12.40;99.90;;;;;;5030685;28;20485;-88
2022/04/27 08:37:19;;;;;;;15.40;11.00;;;12.50;99.90;;;;;;5012359;28;20378;-87
2022/04/27 08:39:45;;;;;;;16.30;11.77;;;12.60;99.90;;;;;;5030436;28;20025;-86
2022/04/27 08:42:12;;;;;;;20.80;11.32;;;12.50;99.90;;;;;;5030235;28;20503;-87
2022/04/27 08:44:38;;;;;;;16.02;11.18;;;12.50;99.90;;;;;;5030632;28;20037;-88
2022/04/27 08:47:07;;;;;;;17.83;11.52;;;12.60;99.90;;;;;;5013560;28;20052;-87
2022/04/27 08:49:34;;;;;;;16.27;11.10;;;12.90;99.90;;;;;;5012144;28;20020;-87
2022/04/27 08:52:05;;;;;;;16.92;11.65;;;13.10;99.90;;;;;;5029971;28;20064;-84
2022/04/27 08:54:33;;;;;;;14.68;11.27;;;13.30;99.90;;;;;;5030120;28;20021;-85
2022/04/27 08:56:59;;;;;;;20.17;11.55;;;13.20;99.90;;;;;;5029988;28;20033;-86
2022/04/27 08:59:25;;;;;;;15.55;11.40;;;13.20;99.90;;;;;;5012345;28;20049;-86
2022/04/27 09:01:51;;;;;;;16.40;11.68;;;13.40;99.90;;;;;;5030225;28;20386;-86
2022/04/27 09:04:18;;;;;;;18.45;11.45;;;13.40;99.90;;;;;;5012597;28;20025;-85
2022/04/27 09:06:46;;;;;;;15.75;10.88;;;13.50;99.90;;;;;;5028183;28;20083;-85
2022/04/27 09:09:36;;;;;;;19.35;12.18;;;13.60;99.90;;;;;;5030024;28;20018;-86
2022/04/27 09:12:08;;;;;;;18.85;11.85;;;13.60;99.90;;;;;;5029346;28;20501;-87
2022/04/27 09:14:38;;;;;;;15.85;11.50;;;13.80;99.90;;;;;;5030077;28;20049;-85
2022/04/27 09:22:45;;;;;;;17.52;11.73;;;14.00;99.90;;;;;;5029786;28;20044;-86
2022/04/27 09:25:11;;;;;;;18.00;11.77;;;13.80;99.90;;;;;;5039188;28;20091;-86
2022/04/27 09:27:37;;;;;;;17.88;11.55;;;13.80;99.90;;;;;;5030505;28;20018;-87
2022/04/27 09:30:10;;;;;;;17.92;11.63;;;14.10;99.90;;;;;;5012390;28;20037;-87
2022/04/27 09:32:35;;;;;;;15.80;11.23;;;14.40;99.90;;;;;;5030319;28;20013;-87
2022/04/27 09:35:03;;;;;;;17.25;11.30;;;14.40;99.90;;;;;;5029048;28;20039;-86
2022/04/27 09:37:37;;;;;;;20.53;12.23;;;14.50;99.90;;;;;;5011729;28;20535;-86
2022/04/27 09:40:12;;;;;;;16.02;11.38;;;14.60;99.60;;;;;;5029122;28;20049;-86
2022/04/27 09:42:47;;;;;;;18.80;11.77;;;14.40;99.90;;;;;;5012388;28;20032;-87
2022/04/27 09:45:16;;;;;;;15.90;10.98;;;14.70;99.90;;;;;;5016791;28;20029;-85
2022/04/27 09:47:49;;;;;;;18.23;12.15;;;14.80;99.90;;;;;;5035160;28;20052;-85
2022/04/27 09:50:16;;;;;;;27.30;11.63;;;14.50;99.90;;;;;;5041828;28;20313;-84
2022/04/27 09:52:44;;;;;;;14.60;11.52;;;14.20;99.90;;;;;;5029069;28;20045;-84
2022/04/27 09:55:10;;;;;;;18.08;11.32;;;14.30;99.90;;;;;;5029107;28;20036;-85
2022/04/27 09:57:40;;;;;;;16.60;11.45;;;14.50;99.90;;;;;;5012377;28;20052;-86
2022/04/27 10:00:07;;;;;;;18.42;11.50;;;14.80;99.90;;;;;;5030148;28;20025;-85
2022/04/27 10:02:34;;;;;;;19.35;11.77;;;15.00;99.50;;;;;;5028861;28;20031;-85
2022/04/27 10:05:01;;;;;;;17.73;11.25;;;14.90;99.90;;;;;;5026904;28;20033;-85
2022/04/27 10:07:30;;;;;;;13.40;11.15;;;15.00;99.60;;;;;;5028134;28;20028;-86
2022/04/27 10:09:57;;;;;;;17.75;11.30;;;15.20;99.90;;;;;;5029149;28;20504;-85
2022/04/27 10:12:23;;;;;;;20.02;11.48;;;15.20;99.90;;;;;;5011095;28;20075;-85
2022/04/27 10:14:48;;;;;;;19.23;10.82;;;15.40;97.20;;;;;;5029116;28;20029;-85
2022/04/27 10:17:15;;;;;;;16.92;10.43;;;15.40;99.30;;;;;;5011370;28;20112;-85
2022/04/27 10:19:48;;;;;;;15.98;11.20;;;15.30;94.80;;;;;;5028479;28;20028;-85
2022/04/27 10:22:31;;;;;;;15.40;11.10;;;15.20;93.40;;;;;;5028990;28;20022;-84
2022/04/27 10:25:04;;;;;;;15.75;11.30;;;15.00;94.60;;;;;;5011140;28;20033;-86
2022/04/27 10:27:33;;;;;;;15.48;11.23;;;14.50;96.00;;;;;;5010825;28;20567;-84
2022/04/27 10:30:00;;;;;;;14.95;10.85;;;14.60;99.90;;;;;;5028930;28;20057;-85
2022/04/27 10:32:42;;;;;;;17.73;11.50;;;14.60;97.00;;;;;;5011109;28;20076;-86
2022/04/27 10:35:18;;;;;;;17.38;11.40;;;14.70;96.80;;;;;;5011396;28;20029;-85
2022/04/27 10:38:11;;;;;;;15.32;10.40;;;14.60;96.90;;;;;;5010936;28;20025;-86
2022/04/27 10:40:41;;;;;;;15.20;11.13;;;14.70;99.40;;;;;;5026344;28;20213;-87
2022/04/27 10:43:06;;;;;;;14.43;10.35;;;15.00;99.90;;;;;;5029430;28;20104;-84
2022/04/27 10:45:38;;;;;;;15.52;10.73;;;15.10;97.60;;;;;;5028620;28;20125;-85
2022/04/27 10:48:13;;;;;;;13.18;9.98;;;15.30;99.70;;;;;;5027022;28;20108;-85
2022/04/27 10:50:39;;;;;;;14.77;10.55;;;15.40;95.40;;;;;;5027142;28;20056;-86
2022/04/27 10:53:20;;;;;;;16.10;10.00;;;15.40;92.50;;;;;;5006998;28;20048;-87
2022/04/27 10:55:50;;;;;;;15.65;11.07;;;15.60;99.40;;;;;;5026260;28;20021;-85
2022/04/27 10:58:22;;;;;;;19.80;11.23;;;15.80;95.80;;;;;;5027318;28;20025;-83
2022/04/27 11:01:18;;;;;;;13.30;10.95;;;15.80;90.50;;;;;;5004933;28;20028;-84
2022/04/27 11:04:00;;;;;;;15.07;10.40;;;15.50;93.50;;;;;;5022776;28;20033;-82
2022/04/27 11:06:26;;;;;;;12.88;9.57;;;15.70;94.20;;;;;;5026533;28;20600;-87
2022/04/27 11:08:58;;;;;;;14.85;10.27;;;16.00;93.40;;;;;;5026697;28;20014;-85
2022/04/27 11:11:26;;;;;;;15.40;10.40;;;15.70;94.20;;;;;;5026695;28;20026;-84
2022/04/27 11:14:00;;;;;;;13.60;10.90;;;15.70;92.50;;;;;;5008685;28;20504;-88
2022/04/27 11:16:26;;;;;;;15.82;10.25;;;15.60;90.70;;;;;;5027255;28;20111;-84
2022/04/27 11:18:53;;;;;;;13.60;9.40;;;15.60;90.30;;;;;;5006833;28;20403;-83
2022/04/27 11:21:21;;;;;;;17.20;10.10;;;15.80;95.80;;;;;;5026441;28;20026;-83
2022/04/27 11:23:48;;;;;;;13.85;9.13;;;16.10;93.30;;;;;;5020317;28;20057;-89
2022/04/27 11:26:15;;;;;;;15.02;9.85;;;15.90;90.60;;;;;;5006313;28;20041;-84
2022/04/27 11:28:45;;;;;;;15.00;9.85;;;16.10;93.30;;;;;;5025342;28;20030;-84
2022/04/27 11:31:14;;;;;;;23.90;10.10;;;16.10;93.60;;;;;;5024760;28;20068;-84
2022/04/27 11:33:41;;;;;;;13.82;9.90;;;16.10;94.40;;;;;;5003668;28;20032;-86
2022/04/27 11:36:20;;;;;;;14.13;10.05;;;15.90;92.00;;;;;;5026627;28;20037;-86
2022/04/27 11:38:46;;;;;;;19.50;10.95;;;15.90;92.20;;;;;;5007063;28;20489;-84
2022/04/27 11:41:19;;;;;;;17.58;10.90;;;16.10;92.50;;;;;;5028006;28;20056;-85
2022/04/27 11:43:46;;;;;;;16.17;10.65;;;16.30;95.20;;;;;;5041250;28;20030;-83
2022/04/27 11:46:12;;;;;;;12.82;10.98;;;16.30;90.10;;;;;;5026990;28;20026;-83
2022/04/27 11:48:38;;;;;;;16.38;10.63;;;16.10;92.00;;;;;;5027108;28;20025;-83
2022/04/27 11:51:06;;;;;;;15.30;10.50;;;16.30;94.90;;;;;;5027683;28;20024;-83
2022/04/27 11:53:46;;;;;;;16.00;10.52;;;16.40;94.10;;;;;;5026883;28;20018;-84
2022/04/27 11:56:13;;;;;;;15.00;10.55;;;16.50;93.60;;;;;;5008536;28;20517;-83
2022/04/27 11:58:40;;;;;;;18.17;10.02;;;16.50;93.20;;;;;;5025556;28;20464;-84
2022/04/27 12:01:05;;;;;;;15.70;10.50;;;16.70;95.80;;;;;;5026738;28;20025;-84
2022/04/27 12:03:40;;;;;;;14.68;10.07;;;16.30;91.70;;;;;;5009139;28;20034;-83
2022/04/27 12:06:07;;;;;;;17.45;10.70;;;16.60;91.10;;;;;;5026275;28;20034;-83
2022/04/27 12:08:35;;;;;;;15.57;10.40;;;16.60;90.00;;;;;;5026696;28;20064;-85
2022/04/27 12:11:01;;;;;;;;;;;16.40;92.20;;;;;;5025395;28;20028;-83
2022/04/27 12:13:28;;;;;;;16.27;9.88;;;16.30;91.90;;;;;;5026493;28;19909;-83
2022/04/27 12:15:55;;;;;;;15.02;10.15;;;16.50;91.60;;;;;;5026869;28;20037;-86
2022/04/27 12:18:28;;;;;;;13.95;10.50;;;16.40;90.20;;;;;;5027066;28;20512;-87
2022/04/27 12:20:55;;;;;;;16.40;11.68;;;16.60;91.20;;;;;;5027023;28;20030;-86
2022/04/27 12:23:34;;;;;;;15.87;10.50;;;16.50;89.60;;;;;;5027029;28;20635;-83
2022/04/27 12:26:00;;;;;;;16.80;10.30;;;16.40;91.80;;;;;;5028001;28;20044;-85
2022/04/27 12:28:40;;;;;;;15.50;10.88;;;16.70;91.50;;;;;;5027883;28;20029;-84
2022/04/27 12:31:08;;;;;;;18.70;11.32;;;16.60;89.60;;;;;;5028158;28;20022;-84
2022/04/27 12:33:35;;;;;;;;;;;16.80;92.80;;;;;;5027783;28;20116;-85
2022/04/27 12:39:05;;;;;;;17.08;12.13;;;17.00;88.10;;;;;;5026931;28;20787;-83
2022/04/27 12:41:45;;;;;;;17.35;10.82;;;17.10;91.40;;;;;;5027027;28;20440;-85
2022/04/27 12:44:20;;;;;;;18.23;10.65;;;17.50;93.80;;;;;;5022525;28;20018;-85
2022/04/27 12:47:00;;;;;;;15.57;10.65;;;17.30;87.70;;;;;;5026497;28;20028;-84
2022/04/27 12:49:28;;;;;;;14.00;11.13;;;17.30;88.20;;;;;;5024651;28;20018;-85
2022/04/27 12:51:54;;;;;;;13.27;9.10;;;17.40;82.90;;;;;;5025897;28;20040;-85
2022/04/27 12:54:32;;;;;;;13.68;10.05;;;17.40;90.90;;;;;;5025952;28;20048;-85
2022/04/27 12:56:59;;;;;;;20.77;10.65;;;17.40;80.20;;;;;;5025265;28;20039;-84
2022/04/27 12:59:25;;;;;;;24.15;10.00;;;17.40;82.00;;;;;;5026970;28;20398;-86
2022/04/27 13:02:02;;;;;;;14.70;9.48;;;17.40;82.70;;;;;;5026394;28;20025;-84
2022/04/27 13:04:28;;;;;;;16.27;10.10;;;17.50;81.80;;;;;;5008717;28;20033;-85
2022/04/27 13:06:54;;;;;;;12.85;9.27;;;17.80;81.10;;;;;;5026874;28;20053;-84
2022/04/27 13:12:07;;;;;;;13.95;8.93;;;17.70;78.40;;;;;;5027871;28;20039;-86